METAR Data
IDs: Format: Raw Decoded Include TAF

Data at: 0106 UTC 01 Mar 2021

EGUL 010056Z AUTO 09003KT 6000 BR OVC002 03/03 A3055 RMK AO2 SLP349 T00320032 $